createdAt,value
2023-01-18T00:01:31.732Z,6.85
2023-01-18T00:04:36.731Z,6.68
2023-01-18T00:07:42.413Z,8.68
2023-01-18T00:10:51.136Z,10.77
2023-01-18T00:13:57.029Z,9.40
2023-01-18T00:17:04.900Z,6.85
2023-01-18T00:20:11.975Z,10.30
2023-01-18T00:23:17.239Z,9.25
2023-01-18T00:26:24.087Z,10.18
2023-01-18T00:29:32.318Z,10.20
2023-01-18T00:32:42.508Z,8.13
2023-01-18T00:35:47.416Z,10.75
2023-01-18T00:38:54.251Z,10.10
2023-01-18T00:42:11.730Z,9.90
2023-01-18T00:45:19.890Z,9.48
2023-01-18T00:48:29.136Z,7.63
2023-01-18T00:51:34.895Z,8.57
2023-01-18T00:54:40.031Z,7.65
2023-01-18T00:57:47.624Z,7.50
2023-01-18T01:00:59.100Z,7.78
2023-01-18T01:04:21.810Z,8.50
2023-01-18T01:07:29.196Z,8.50
2023-01-18T01:10:37.921Z,8.13
2023-01-18T01:13:55.255Z,7.28
2023-01-18T01:17:13.194Z,7.88
2023-01-18T01:20:33.717Z,10.20
2023-01-18T01:23:54.295Z,7.32
2023-01-18T01:26:59.489Z,9.07
2023-01-18T01:30:08.363Z,8.30
2023-01-18T01:33:13.652Z,7.55
2023-01-18T01:36:26.060Z,7.60
2023-01-18T01:39:31.860Z,9.40
2023-01-18T01:42:37.677Z,7.07
2023-01-18T01:45:42.862Z,10.88
2023-01-18T01:48:51.931Z,7.88
2023-01-18T01:52:01.071Z,5.90
2023-01-18T01:55:09.887Z,7.75
2023-01-18T01:58:16.189Z,9.10
2023-01-18T02:01:21.855Z,9.02
2023-01-18T02:04:27.209Z,7.28
2023-01-18T02:07:35.978Z,10.40
2023-01-18T02:10:41.655Z,9.15
2023-01-18T02:13:47.114Z,10.27
2023-01-18T02:16:57.602Z,8.07
2023-01-18T02:20:20.075Z,8.32
2023-01-18T02:23:35.590Z,4.57
2023-01-18T02:26:52.287Z,9.40
2023-01-18T02:30:15.202Z,9.35
2023-01-18T02:33:22.832Z,9.48
2023-01-18T02:36:29.594Z,9.15
2023-01-18T02:39:38.608Z,9.75
2023-01-18T02:42:57.085Z,11.00
2023-01-18T02:46:20.287Z,12.90
2023-01-18T02:49:27.536Z,11.55
2023-01-18T02:52:40.527Z,8.73
2023-01-18T02:55:51.960Z,11.90
2023-01-18T02:59:03.130Z,11.70
2023-01-18T03:02:17.460Z,11.70
2023-01-18T03:05:27.902Z,9.50
2023-01-18T03:08:38.984Z,10.98
2023-01-18T03:11:49.151Z,8.43
2023-01-18T03:14:58.219Z,11.50
2023-01-18T03:18:09.596Z,10.57
2023-01-18T03:21:14.894Z,10.00
2023-01-18T03:24:19.383Z,10.68
2023-01-18T03:27:36.797Z,12.52
2023-01-18T03:30:55.985Z,12.13
2023-01-18T03:34:05.788Z,9.82
2023-01-18T03:37:13.770Z,11.93
2023-01-18T03:40:23.886Z,10.93
2023-01-18T03:43:36.620Z,11.15
2023-01-18T03:46:45.952Z,11.75
2023-01-18T03:49:54.062Z,12.88
2023-01-18T03:53:03.057Z,11.07
2023-01-18T03:56:10.239Z,8.20
2023-01-18T03:59:16.056Z,12.95
2023-01-18T04:02:23.161Z,11.77
2023-01-18T04:05:34.194Z,13.38
2023-01-18T04:08:40.634Z,10.57
2023-01-18T04:11:46.407Z,15.02
2023-01-18T04:14:54.386Z,7.90
2023-01-18T04:17:59.760Z,13.30
2023-01-18T04:21:09.612Z,12.00
2023-01-18T04:24:16.573Z,11.35
2023-01-18T04:27:26.384Z,12.05
2023-01-18T04:30:33.242Z,11.00
2023-01-18T04:33:44.147Z,11.63
2023-01-18T04:36:52.556Z,15.30
2023-01-18T04:39:58.431Z,12.10
2023-01-18T04:43:04.819Z,13.25
2023-01-18T04:46:10.545Z,11.38
2023-01-18T04:49:17.672Z,12.60
2023-01-18T04:52:26.983Z,13.68
2023-01-18T04:55:32.047Z,10.60
2023-01-18T04:58:40.071Z,11.75
2023-01-18T05:01:48.096Z,11.45
2023-01-18T05:04:53.855Z,10.45
2023-01-18T05:08:13.368Z,10.80
2023-01-18T05:11:19.877Z,8.60
2023-01-18T05:14:26.607Z,17.27
2023-01-18T05:17:34.873Z,11.77
2023-01-18T05:20:39.887Z,12.00
2023-01-18T05:23:48.221Z,10.00
2023-01-18T05:26:56.051Z,10.57
2023-01-18T05:30:05.249Z,9.10
2023-01-18T05:33:12.187Z,12.88
2023-01-18T05:36:17.518Z,8.55
2023-01-18T05:39:27.909Z,11.80
2023-01-18T05:42:33.629Z,10.30
2023-01-18T05:45:39.369Z,11.43
2023-01-18T05:48:45.746Z,10.98
2023-01-18T05:51:50.667Z,8.88
2023-01-18T05:54:59.184Z,9.57
2023-01-18T05:58:04.586Z,9.77
2023-01-18T06:01:15.017Z,9.25
2023-01-18T06:04:23.901Z,10.07
2023-01-18T06:07:29.277Z,8.50
2023-01-18T06:10:41.863Z,7.75
2023-01-18T06:14:01.268Z,8.45
2023-01-18T06:17:07.667Z,11.20
2023-01-18T06:20:15.506Z,8.63
2023-01-18T06:23:20.782Z,10.27
2023-01-18T06:34:49.437Z,9.88
2023-01-18T06:37:56.673Z,9.95
2023-01-18T06:41:04.490Z,9.60
2023-01-18T06:44:13.040Z,11.70
2023-01-18T06:47:23.899Z,9.80
2023-01-18T06:50:34.299Z,11.65
2023-01-18T06:53:44.539Z,10.75
2023-01-18T06:56:50.892Z,13.23
2023-01-18T07:00:02.278Z,11.43
2023-01-18T07:03:11.150Z,13.73
2023-01-18T07:06:18.913Z,12.63
2023-01-18T07:09:25.695Z,14.18
2023-01-18T07:12:32.783Z,16.48
2023-01-18T07:15:41.975Z,17.50
2023-01-18T07:18:48.465Z,24.48
2023-01-18T07:21:56.823Z,19.77
2023-01-18T07:25:02.780Z,15.70
2023-01-18T07:28:09.351Z,18.42
2023-01-18T07:31:18.003Z,18.83
2023-01-18T07:34:26.167Z,21.88
2023-01-18T07:37:34.499Z,19.00
2023-01-18T07:40:40.663Z,20.23
2023-01-18T07:43:48.991Z,17.70
2023-01-18T07:47:00.897Z,15.48
2023-01-18T07:50:10.005Z,18.42
2023-01-18T07:53:15.478Z,15.00
2023-01-18T07:56:23.123Z,12.32
2023-01-18T07:59:31.211Z,12.90
2023-01-18T08:02:42.046Z,13.25
2023-01-18T08:05:58.633Z,19.30
2023-01-18T08:09:07.536Z,17.25
2023-01-18T08:12:18.250Z,15.43
2023-01-18T08:15:26.951Z,13.55
2023-01-18T08:18:35.951Z,14.63
2023-01-18T08:21:43.480Z,16.30
2023-01-18T08:24:52.255Z,14.73
2023-01-18T08:27:59.785Z,12.95
2023-01-18T08:31:09.848Z,13.95
2023-01-18T08:34:18.361Z,12.50
2023-01-18T08:37:25.015Z,15.90
2023-01-18T08:40:37.162Z,14.88
2023-01-18T08:43:44.699Z,14.30
2023-01-18T08:46:51.503Z,15.70
2023-01-18T08:50:00.815Z,14.65
2023-01-18T08:53:07.284Z,14.65
2023-01-18T08:56:14.116Z,15.95
2023-01-18T08:59:20.155Z,16.00
2023-01-18T09:02:31.712Z,16.63
2023-01-18T09:05:43.698Z,14.40
2023-01-18T09:08:55.989Z,14.98
2023-01-18T09:12:01.991Z,16.75
2023-01-18T09:15:12.033Z,15.13
2023-01-18T09:18:17.186Z,13.93
2023-01-18T09:21:29.384Z,15.27
2023-01-18T09:24:35.076Z,17.02
2023-01-18T09:27:42.614Z,16.00
2023-01-18T09:30:50.200Z,15.70
2023-01-18T09:34:17.490Z,14.05
2023-01-18T09:37:34.432Z,15.00
2023-01-18T09:40:48.529Z,17.90
2023-01-18T09:44:03.248Z,33.75
2023-01-18T09:47:22.522Z,43.83
2023-01-18T09:50:29.440Z,42.35
2023-01-18T09:53:45.962Z,26.48
2023-01-18T09:56:57.931Z,16.35
2023-01-18T10:00:07.222Z,16.27
2023-01-18T10:03:19.528Z,33.92
2023-01-18T10:06:27.338Z,24.60
2023-01-18T10:09:37.729Z,16.65
2023-01-18T10:12:47.517Z,15.45
2023-01-18T10:15:53.221Z,16.88
2023-01-18T10:19:08.652Z,21.60
2023-01-18T10:22:20.569Z,19.88
2023-01-18T10:25:35.831Z,20.73
2023-01-18T10:28:49.973Z,16.98
2023-01-18T10:31:58.729Z,17.80
2023-01-18T10:35:05.162Z,29.25
2023-01-18T10:38:12.285Z,24.15
2023-01-18T10:41:22.648Z,23.67
2023-01-18T10:44:28.418Z,18.10
2023-01-18T10:47:34.795Z,19.00
2023-01-18T10:50:42.587Z,15.88
2023-01-18T10:53:49.436Z,15.75
2023-01-18T10:57:09.174Z,16.88
2023-01-18T11:00:22.129Z,14.90
2023-01-18T11:03:29.235Z,14.60
2023-01-18T11:06:34.980Z,16.05
2023-01-18T11:09:43.667Z,16.33
2023-01-18T11:12:54.539Z,15.63
2023-01-18T11:16:07.585Z,16.65
2023-01-18T11:19:20.217Z,16.90
2023-01-18T11:22:29.746Z,19.50
2023-01-18T11:25:40.273Z,16.80
2023-01-18T11:28:54.879Z,17.83
2023-01-18T11:32:05.498Z,19.15
2023-01-18T11:35:12.622Z,16.45
2023-01-18T11:38:22.123Z,33.88
2023-01-18T11:41:32.420Z,21.17
2023-01-18T11:44:44.809Z,17.88
2023-01-18T11:51:00.377Z,18.70
2023-01-18T11:54:09.460Z,16.55
2023-01-18T11:57:14.805Z,16.33
2023-01-18T12:00:29.469Z,15.90
2023-01-18T12:03:52.720Z,14.55
2023-01-18T12:07:07.996Z,16.80
2023-01-18T12:10:21.673Z,15.70
2023-01-18T12:13:37.733Z,15.80
2023-01-18T12:16:56.854Z,17.60
2023-01-18T12:20:08.369Z,19.10
2023-01-18T12:23:25.759Z,18.98
2023-01-18T12:26:36.845Z,20.40
2023-01-18T12:30:03.847Z,19.75
2023-01-18T12:33:16.535Z,21.77
2023-01-18T12:36:39.347Z,20.35
2023-01-18T12:40:07.910Z,18.30
2023-01-18T12:43:22.376Z,20.67
2023-01-18T12:46:31.854Z,21.77
2023-01-18T12:49:43.839Z,20.85
2023-01-18T12:52:59.649Z,16.65
2023-01-18T12:56:11.327Z,16.80
2023-01-18T12:59:18.918Z,19.33
2023-01-18T13:02:34.564Z,16.83
2023-01-18T13:05:53.668Z,13.52
2023-01-18T13:09:01.683Z,17.23
2023-01-18T13:12:08.808Z,16.75
2023-01-18T13:15:21.466Z,16.70
2023-01-18T13:18:28.245Z,17.15
2023-01-18T13:21:46.427Z,17.92
2023-01-18T13:24:58.461Z,17.67
2023-01-18T13:28:05.735Z,15.75
2023-01-18T13:31:14.256Z,12.68
2023-01-18T13:34:44.904Z,15.63
2023-01-18T13:37:58.851Z,16.98
2023-01-18T13:41:05.726Z,16.92
2023-01-18T13:44:32.695Z,17.83
2023-01-18T13:47:53.239Z,20.88
2023-01-18T13:50:59.496Z,15.88
2023-01-18T13:54:08.322Z,15.38
2023-01-18T13:57:19.478Z,14.68
2023-01-18T14:00:26.591Z,20.40
2023-01-18T14:03:33.955Z,17.30
2023-01-18T14:06:42.028Z,17.77
2023-01-18T14:09:52.062Z,16.02
2023-01-18T14:12:58.659Z,17.05
2023-01-18T14:16:07.169Z,17.02
2023-01-18T14:19:18.952Z,18.52
2023-01-18T14:22:33.685Z,17.95
2023-01-18T14:25:59.524Z,19.10
2023-01-18T14:29:15.511Z,18.35
2023-01-18T14:32:23.527Z,20.23
2023-01-18T14:35:29.372Z,25.13
2023-01-18T14:38:35.080Z,23.25
2023-01-18T14:41:46.931Z,23.70
2023-01-18T14:44:58.664Z,24.58
2023-01-18T14:48:14.421Z,36.92
2023-01-18T14:51:22.450Z,24.02
2023-01-18T14:54:28.499Z,25.38
2023-01-18T14:57:40.650Z,25.08
2023-01-18T15:00:50.040Z,23.05
2023-01-18T15:03:59.139Z,26.05
2023-01-18T15:07:07.141Z,25.15
2023-01-18T15:10:13.071Z,27.27
2023-01-18T15:13:26.779Z,21.88
2023-01-18T15:16:34.250Z,26.27
2023-01-18T15:19:42.975Z,21.70
2023-01-18T15:22:52.407Z,24.15
2023-01-18T15:25:59.763Z,24.25
2023-01-18T15:29:16.678Z,27.40
2023-01-18T15:32:31.074Z,25.85
2023-01-18T15:35:40.614Z,25.55
2023-01-18T15:38:48.035Z,29.58
2023-01-18T15:41:57.173Z,25.42
2023-01-18T15:45:13.192Z,23.85
2023-01-18T15:48:22.760Z,24.23
2023-01-18T15:51:43.073Z,23.27
2023-01-18T15:54:52.723Z,28.52
2023-01-18T15:58:01.293Z,24.67
2023-01-18T16:01:10.849Z,25.13
2023-01-18T16:04:23.436Z,31.00
2023-01-18T16:07:39.077Z,25.95
2023-01-18T16:10:50.329Z,29.95
2023-01-18T16:17:09.858Z,30.88
2023-01-18T16:20:19.406Z,34.67
2023-01-18T16:23:26.549Z,32.35
2023-01-18T16:26:34.563Z,35.85
2023-01-18T16:29:44.890Z,36.47
2023-01-18T16:32:53.115Z,34.90
2023-01-18T16:35:58.923Z,34.88
2023-01-18T16:39:07.214Z,35.13
2023-01-18T16:42:13.646Z,39.25
2023-01-18T16:45:19.915Z,39.60
2023-01-18T16:48:29.341Z,35.30
2023-01-18T16:51:34.765Z,42.15
2023-01-18T16:54:40.365Z,37.03
2023-01-18T16:57:46.114Z,31.42
2023-01-18T17:00:54.091Z,32.38
2023-01-18T17:04:03.383Z,31.30
2023-01-18T17:07:09.748Z,32.65
2023-01-18T17:10:21.693Z,24.27
2023-01-18T17:13:27.367Z,33.70
2023-01-18T17:16:33.493Z,32.90
2023-01-18T17:19:45.556Z,31.75
2023-01-18T17:22:50.844Z,33.40
2023-01-18T17:25:56.603Z,33.08
2023-01-18T17:29:04.441Z,34.30
2023-01-18T17:32:10.594Z,38.35
2023-01-18T17:35:18.825Z,29.73
2023-01-18T17:38:28.835Z,27.13
2023-01-18T17:41:39.849Z,27.10
2023-01-18T17:44:46.103Z,26.42
2023-01-18T17:47:54.762Z,29.67
2023-01-18T17:51:03.893Z,29.98
2023-01-18T17:54:13.401Z,30.75
2023-01-18T17:57:30.036Z,26.73
2023-01-18T18:00:37.885Z,29.42
2023-01-18T18:03:44.301Z,29.13
2023-01-18T18:06:58.665Z,29.90
2023-01-18T18:10:07.781Z,24.42
2023-01-18T18:13:12.940Z,30.25
2023-01-18T18:16:46.025Z,27.35
2023-01-18T18:23:36.896Z,28.60
2023-01-18T18:26:44.397Z,31.35
2023-01-18T18:29:51.689Z,24.73
2023-01-18T18:32:59.944Z,28.98
2023-01-18T18:36:06.134Z,32.97
2023-01-18T18:39:14.258Z,36.33
2023-01-18T18:42:20.102Z,34.25
2023-01-18T18:45:25.280Z,35.83
2023-01-18T18:48:31.046Z,36.55
2023-01-18T18:51:36.444Z,34.13
2023-01-18T18:54:45.092Z,35.80
2023-01-18T18:57:54.250Z,26.92
2023-01-18T19:01:00.920Z,35.92
2023-01-18T19:04:06.169Z,34.45
2023-01-18T19:07:12.240Z,39.90
2023-01-18T19:10:21.792Z,34.38
2023-01-18T19:13:31.011Z,32.80
2023-01-18T19:16:38.974Z,39.60
2023-01-18T19:19:46.676Z,34.60
2023-01-18T19:22:53.826Z,35.33
2023-01-18T19:26:04.926Z,38.10
2023-01-18T19:29:13.152Z,37.70
2023-01-18T19:32:21.710Z,33.53
2023-01-18T19:35:28.013Z,37.33
2023-01-18T19:41:56.245Z,36.45
2023-01-18T19:45:06.917Z,36.58
2023-01-18T19:48:12.985Z,32.63
2023-01-18T19:51:22.893Z,35.08
2023-01-18T19:54:28.549Z,37.30
2023-01-18T19:57:52.611Z,34.45
2023-01-18T20:01:03.758Z,42.08
2023-01-18T20:04:09.853Z,39.45
2023-01-18T20:07:16.532Z,39.80
2023-01-18T20:10:26.336Z,34.83
2023-01-18T20:14:02.401Z,39.42
2023-01-18T20:17:15.668Z,36.10
2023-01-18T20:20:32.585Z,35.92
2023-01-18T20:23:38.499Z,39.55
2023-01-18T20:26:49.834Z,31.73
2023-01-18T20:30:03.393Z,39.47
2023-01-18T20:33:14.424Z,35.90
2023-01-18T20:36:33.668Z,15.70
2023-01-18T20:39:43.027Z,33.00
2023-01-18T20:42:58.620Z,25.60
2023-01-18T20:46:08.657Z,20.75
2023-01-18T20:49:36.764Z,27.80
2023-01-18T20:52:50.836Z,31.35
2023-01-18T20:56:28.477Z,31.73
2023-01-18T20:59:34.958Z,30.42
2023-01-18T21:02:42.825Z,28.65
2023-01-18T21:05:58.412Z,33.50
2023-01-18T21:09:26.012Z,26.30
2023-01-18T21:12:34.413Z,30.50
2023-01-18T21:15:42.172Z,35.20
2023-01-18T21:18:59.396Z,23.45
2023-01-18T21:22:12.104Z,21.67
2023-01-18T21:25:20.858Z,27.13
2023-01-18T21:28:30.453Z,23.88
2023-01-18T21:31:48.954Z,25.95
2023-01-18T21:35:01.572Z,28.77
2023-01-18T21:38:13.144Z,24.08
2023-01-18T21:41:37.186Z,23.83
2023-01-18T21:44:55.975Z,30.92
2023-01-18T21:48:02.902Z,21.00
2023-01-18T21:51:34.566Z,19.73
2023-01-18T21:54:47.452Z,21.23
2023-01-18T21:58:11.781Z,22.70
2023-01-18T22:01:19.441Z,28.27
2023-01-18T22:04:37.265Z,23.85
2023-01-18T22:07:44.429Z,28.98
2023-01-18T22:10:58.717Z,27.63
2023-01-18T22:14:07.900Z,23.73
2023-01-18T22:17:16.694Z,25.83
2023-01-18T22:20:21.949Z,27.38
2023-01-18T22:23:30.053Z,27.35
2023-01-18T22:26:39.212Z,28.65
2023-01-18T22:29:49.119Z,31.05
2023-01-18T22:32:57.159Z,26.50
2023-01-18T22:36:04.838Z,29.75
2023-01-18T22:39:12.749Z,26.17
2023-01-18T22:42:20.960Z,31.33
2023-01-18T22:45:26.203Z,29.83
2023-01-18T22:48:38.385Z,31.40
2023-01-18T22:51:46.476Z,23.25
2023-01-18T22:54:56.959Z,21.15
2023-01-18T22:58:04.753Z,31.17
2023-01-18T23:01:17.030Z,23.15
2023-01-18T23:04:24.755Z,27.35
2023-01-18T23:07:40.560Z,26.55
2023-01-18T23:10:45.723Z,30.92
2023-01-18T23:14:07.842Z,27.42
2023-01-18T23:17:26.640Z,28.13
2023-01-18T23:20:33.462Z,24.30
2023-01-18T23:23:40.965Z,26.35
2023-01-18T23:27:02.406Z,28.17
2023-01-18T23:33:15.728Z,28.88
2023-01-18T23:36:23.766Z,22.08
2023-01-18T23:39:42.904Z,21.15
2023-01-18T23:43:00.485Z,21.42
2023-01-18T23:46:18.543Z,23.77
2023-01-18T23:49:39.579Z,23.38
2023-01-18T23:52:57.635Z,22.58
2023-01-18T23:56:03.717Z,25.00
2023-01-18T23:59:14.451Z,24.73
